Time;durP1;ratioP1;P1;durP2;ratioP2;P2;SDS_P1;SDS_P2;PMS_P1;PMS_P2;Temp;Humidity;BMP_temperature;BMP_pressure;BME280_temperature;BME280_humidity;BME280_pressure;Samples;Min_cycle;Max_cycle;Signal;HPM_P1;HPM_P2
2023/05/10 00:01:35;;;;;;;1.10;1.00;;;;;;;;;;5058822;27;89122;-52
2023/05/10 00:04:05;;;;;;;1.63;1.13;;;;;;;;;;5047867;27;87105;-52
2023/05/10 00:06:33;;;;;;;2.33;1.33;;;;;;;;;;5044193;27;89010;-52
2023/05/10 00:09:01;;;;;;;2.33;1.10;;;;;;;;;;5042383;27;88584;-53
2023/05/10 00:11:30;;;;;;;1.77;1.10;;;;;;;;;;5049755;27;86933;-52
2023/05/10 00:13:58;;;;;;;1.47;1.20;;;;;;;;;;5055101;27;86965;-52
2023/05/10 00:16:26;;;;;;;1.43;1.33;;;;;;;;;;5051833;27;88717;-52
2023/05/10 00:18:55;;;;;;;1.90;1.10;;;;;;;;;;5047685;27;87808;-53
2023/05/10 00:21:24;;;;;;;0.93;0.70;;;;;;;;;;5044829;27;86978;-52
2023/05/10 00:23:53;;;;;;;2.13;1.40;;;;;;;;;;5051316;27;89064;-52
2023/05/10 00:26:21;;;;;;;1.50;1.20;;;;;;;;;;5054477;27;90342;-52
2023/05/10 00:28:49;;;;;;;2.27;1.23;;;;;;;;;;5056074;27;89703;-52
2023/05/10 00:31:18;;;;;;;1.00;0.90;;;;;;;;;;5054372;27;87021;-52
2023/05/10 00:33:46;;;;;;;1.23;1.10;;;;;;;;;;5056263;27;86917;-52
2023/05/10 00:36:14;;;;;;;2.23;0.90;;;;;;;;;;5056918;27;88029;-52
2023/05/10 00:38:44;;;;;;;2.27;0.70;;;;;;;;;;5061616;27;87091;-52
2023/05/10 00:41:12;;;;;;;1.03;0.90;;;;;;;;;;5060220;27;86740;-52
2023/05/10 00:43:41;;;;;;;1.97;1.20;;;;;;;;;;5062206;27;86272;-52
2023/05/10 00:46:09;;;;;;;1.37;1.10;;;;;;;;;;5061819;27;89157;-52
2023/05/10 00:48:37;;;;;;;2.33;1.20;;;;;;;;;;5061803;27;87686;-52
2023/05/10 00:51:06;;;;;;;1.27;1.13;;;;;;;;;;5061788;27;88055;-52
2023/05/10 00:53:34;;;;;;;3.13;1.37;;;;;;;;;;5061857;27;86837;-52
2023/05/10 00:56:04;;;;;;;1.10;1.00;;;;;;;;;;5061604;27;87953;-52
2023/05/10 00:58:33;;;;;;;1.33;1.10;;;;;;;;;;5048306;27;88307;-52
2023/05/10 01:01:01;;;;;;;1.67;1.20;;;;;;;;;;5041175;27;87018;-52
2023/05/10 01:03:29;;;;;;;2.33;0.93;;;;;;;;;;5041110;27;87010;-52
2023/05/10 01:05:58;;;;;;;1.47;1.17;;;;;;;;;;5045132;27;89338;-52
2023/05/10 01:08:26;;;;;;;1.37;1.20;;;;;;;;;;5058532;27;88928;-52
2023/05/10 01:10:54;;;;;;;1.87;1.00;;;;;;;;;;5041843;27;86734;-52
2023/05/10 01:13:29;;;;;;;0.90;0.83;;;;;;;;;;5041307;27;87095;-52
2023/05/10 01:15:57;;;;;;;0.70;0.70;;;;;;;;;;5045041;27;89041;-52
2023/05/10 01:18:25;;;;;;;1.07;0.97;;;;;;;;;;5060851;27;89747;-52
2023/05/10 01:20:58;;;;;;;1.67;1.57;;;;;;;;;;5042222;27;87020;-52
2023/05/10 01:23:37;;;;;;;1.17;1.07;;;;;;;;;;5044575;27;87125;-52
2023/05/10 01:26:09;;;;;;;1.67;1.30;;;;;;;;;;5044607;27;88472;-52
2023/05/10 01:28:44;;;;;;;1.33;1.13;;;;;;;;;;5047931;27;88527;-52
2023/05/10 01:31:19;;;;;;;1.37;1.00;;;;;;;;;;5060977;27;87125;-52
2023/05/10 01:33:50;;;;;;;2.17;1.27;;;;;;;;;;5046013;27;86314;-52
2023/05/10 01:36:25;;;;;;;1.10;0.90;;;;;;;;;;5048568;27;89159;-52
2023/05/10 01:38:55;;;;;;;2.70;1.27;;;;;;;;;;5046341;27;88788;-52
2023/05/10 01:41:26;;;;;;;0.97;0.83;;;;;;;;;;5051398;27;87983;-52
2023/05/10 01:43:56;;;;;;;1.03;1.00;;;;;;;;;;5061236;27;87057;-52
2023/05/10 01:46:26;;;;;;;1.90;1.50;;;;;;;;;;5054703;27;89239;-52
2023/05/10 01:48:57;;;;;;;1.30;1.20;;;;;;;;;;5050994;27;88496;-52
2023/05/10 01:51:26;;;;;;;1.57;1.30;;;;;;;;;;5048166;27;86753;-52
2023/05/10 01:53:55;;;;;;;1.10;0.80;;;;;;;;;;5044732;27;86869;-52
2023/05/10 01:56:24;;;;;;;1.07;0.93;;;;;;;;;;5052136;27;86843;-52
2023/05/10 01:58:53;;;;;;;4.00;1.30;;;;;;;;;;5064243;27;87810;-52
2023/05/10 02:01:21;;;;;;;1.53;1.23;;;;;;;;;;5047083;27;87135;-52
2023/05/10 02:03:50;;;;;;;1.57;1.20;;;;;;;;;;5059506;27;86938;-52
2023/05/10 02:06:19;;;;;;;1.50;0.83;;;;;;;;;;5051298;27;90192;-52
2023/05/10 02:08:48;;;;;;;1.23;1.00;;;;;;;;;;5063910;27;89854;-52
2023/05/10 02:11:16;;;;;;;5.50;1.40;;;;;;;;;;5062921;27;86755;-52
2023/05/10 02:13:44;;;;;;;1.27;1.00;;;;;;;;;;5062476;27;86989;-52
2023/05/10 02:16:13;;;;;;;1.70;1.10;;;;;;;;;;5044815;27;89113;-52
2023/05/10 02:18:41;;;;;;;0.87;0.87;;;;;;;;;;5062219;27;88647;-52
2023/05/10 02:21:10;;;;;;;1.03;0.93;;;;;;;;;;5049563;27;87847;-52
2023/05/10 02:23:39;;;;;;;1.30;1.20;;;;;;;;;;5046407;27;86344;-52
2023/05/10 02:26:07;;;;;;;1.20;0.80;;;;;;;;;;5061343;27;89202;-52
2023/05/10 02:28:37;;;;;;;1.20;1.10;;;;;;;;;;5043308;27;88532;-52
2023/05/10 02:31:06;;;;;;;2.13;1.27;;;;;;;;;;5046933;27;87914;-52
2023/05/10 02:33:35;;;;;;;1.70;1.03;;;;;;;;;;5064305;27;86847;-52
2023/05/10 02:36:03;;;;;;;1.43;1.13;;;;;;;;;;5063949;27;86948;-52
2023/05/10 02:38:31;;;;;;;0.90;0.80;;;;;;;;;;5063642;27;87946;-52
2023/05/10 02:41:02;;;;;;;1.20;1.10;;;;;;;;;;5052404;27;87028;-52
2023/05/10 02:43:31;;;;;;;1.80;1.00;;;;;;;;;;5063278;27;87163;-52
2023/05/10 02:45:59;;;;;;;2.47;1.10;;;;;;;;;;5063682;27;89205;-52
2023/05/10 02:48:27;;;;;;;1.77;1.00;;;;;;;;;;5077179;27;87710;-52
2023/05/10 02:50:56;;;;;;;1.33;1.23;;;;;;;;;;5072859;27;87029;-52
2023/05/10 02:53:25;;;;;;;1.97;1.17;;;;;;;;;;5063803;27;86879;-52
2023/05/10 02:55:54;;;;;;;0.90;0.70;;;;;;;;;;5062641;27;89696;-52
2023/05/10 02:58:23;;;;;;;1.47;0.97;;;;;;;;;;5063212;27;89594;-52
2023/05/10 03:00:52;;;;;;;1.57;1.10;;;;;;;;;;5063215;27;87121;-52
2023/05/10 03:03:21;;;;;;;1.80;1.40;;;;;;;;;;5062740;27;86893;-52
2023/05/10 03:05:49;;;;;;;1.43;1.10;;;;;;;;;;5062615;27;88894;-52
2023/05/10 03:08:17;;;;;;;1.30;1.10;;;;;;;;;;5060979;27;88695;-52
2023/05/10 03:10:50;;;;;;;1.37;1.27;;;;;;;;;;5062957;27;87110;-52
2023/05/10 03:13:21;;;;;;;1.10;0.90;;;;;;;;;;5064087;27;86177;-52
2023/05/10 03:15:53;;;;;;;1.07;0.97;;;;;;;;;;5062287;27;89047;-52
2023/05/10 03:18:23;;;;;;;1.27;0.90;;;;;;;;;;5061986;27;88901;-52
2023/05/10 03:20:51;;;;;;;1.40;1.13;;;;;;;;;;5061916;27;87957;-52
2023/05/10 03:23:22;;;;;;;0.90;0.90;;;;;;;;;;5059095;27;86900;-52
2023/05/10 03:25:51;;;;;;;1.07;0.97;;;;;;;;;;5062261;27;88215;-52
2023/05/10 03:28:19;;;;;;;0.80;0.80;;;;;;;;;;5061502;27;87453;-52
2023/05/10 03:30:47;;;;;;;1.27;1.17;;;;;;;;;;5060818;27;86948;-52
2023/05/10 03:33:17;;;;;;;1.07;1.00;;;;;;;;;;5062677;27;88868;-52
2023/05/10 03:35:46;;;;;;;1.07;0.90;;;;;;;;;;5062314;27;88121;-52
2023/05/10 03:38:14;;;;;;;0.90;0.73;;;;;;;;;;5062353;27;88097;-52
2023/05/10 03:40:42;;;;;;;1.60;0.67;;;;;;;;;;5062192;27;87019;-52
2023/05/10 03:43:11;;;;;;;2.47;1.27;;;;;;;;;;5062893;27;87015;-52
2023/05/10 03:45:39;;;;;;;0.83;0.70;;;;;;;;;;5061224;27;90261;-52
2023/05/10 03:48:08;;;;;;;1.37;1.07;;;;;;;;;;5061021;27;90055;-52
2023/05/10 03:50:37;;;;;;;1.27;0.93;;;;;;;;;;5062135;27;87039;-52
2023/05/10 03:53:05;;;;;;;1.17;1.07;;;;;;;;;;5061810;27;87053;-52
2023/05/10 03:55:36;;;;;;;3.13;0.80;;;;;;;;;;5061852;27;88094;-52
2023/05/10 03:58:04;;;;;;;2.37;1.10;;;;;;;;;;5061070;27;88491;-52
2023/05/10 04:00:32;;;;;;;1.23;1.10;;;;;;;;;;5061979;27;87034;-52
2023/05/10 04:03:01;;;;;;;1.00;1.00;;;;;;;;;;5062451;27;86149;-52
2023/05/10 04:05:29;;;;;;;0.90;0.70;;;;;;;;;;5060700;27;88034;-52
2023/05/10 04:07:59;;;;;;;1.90;0.80;;;;;;;;;;5056500;27;88927;-52
2023/05/10 04:10:27;;;;;;;1.53;1.00;;;;;;;;;;5060985;27;87921;-52
2023/05/10 04:12:56;;;;;;;2.63;1.13;;;;;;;;;;5061539;27;87234;-52
2023/05/10 04:15:24;;;;;;;1.37;1.00;;;;;;;;;;5060426;27;89266;-52
2023/05/10 04:17:53;;;;;;;2.80;0.90;;;;;;;;;;5059183;27;87741;-52
2023/05/10 04:20:21;;;;;;;5.63;0.93;;;;;;;;;;5062134;27;87038;-52
2023/05/10 04:22:50;;;;;;;2.33;1.37;;;;;;;;;;5061349;27;87092;-52
2023/05/10 04:25:19;;;;;;;0.87;0.87;;;;;;;;;;5061773;27;89207;-52
2023/05/10 04:27:48;;;;;;;1.17;0.90;;;;;;;;;;5061194;27;88000;-52
2023/05/10 04:30:16;;;;;;;1.20;0.93;;;;;;;;;;5061435;27;87023;-52
2023/05/10 04:32:45;;;;;;;1.73;1.00;;;;;;;;;;5058248;27;87188;-52
2023/05/10 04:35:14;;;;;;;2.83;1.40;;;;;;;;;;5061226;27;89968;-52
2023/05/10 04:37:43;;;;;;;2.00;1.10;;;;;;;;;;5061943;27;87446;-53
2023/05/10 04:40:12;;;;;;;1.00;0.90;;;;;;;;;;5061723;27;86908;-53
2023/05/10 04:42:42;;;;;;;1.30;0.87;;;;;;;;;;5060795;27;87782;-52
2023/05/10 04:45:11;;;;;;;3.43;1.33;;;;;;;;;;5061173;27;89122;-52
2023/05/10 04:47:39;;;;;;;3.30;1.40;;;;;;;;;;5060641;27;88694;-52
2023/05/10 04:50:09;;;;;;;4.40;1.50;;;;;;;;;;5062319;27;87024;-54
2023/05/10 04:52:37;;;;;;;2.57;1.37;;;;;;;;;;5061607;27;86310;-55
2023/05/10 04:55:07;;;;;;;1.33;1.10;;;;;;;;;;5058403;27;87879;-54
2023/05/10 04:57:36;;;;;;;1.93;1.60;;;;;;;;;;5058475;27;88845;-54
2023/05/10 05:00:06;;;;;;;3.03;1.87;;;;;;;;;;5061041;27;87837;-54
2023/05/10 05:02:34;;;;;;;2.73;1.00;;;;;;;;;;5061281;27;87063;-54
2023/05/10 05:05:03;;;;;;;3.23;1.60;;;;;;;;;;5059260;27;89119;-54
2023/05/10 05:07:31;;;;;;;2.10;1.13;;;;;;;;;;5064485;27;87849;-54
2023/05/10 05:10:00;;;;;;;1.87;1.57;;;;;;;;;;5064901;27;87084;-54
2023/05/10 05:12:28;;;;;;;2.03;1.60;;;;;;;;;;5062008;27;87035;-54
2023/05/10 05:14:56;;;;;;;1.80;1.63;;;;;;;;;;5064545;27;88254;-54
2023/05/10 05:17:26;;;;;;;3.57;1.50;;;;;;;;;;5064315;27;88796;-54
2023/05/10 05:19:54;;;;;;;2.30;1.50;;;;;;;;;;5065482;27;86959;-54
2023/05/10 05:22:27;;;;;;;2.53;1.33;;;;;;;;;;5066003;27;87126;-55
2023/05/10 05:24:55;;;;;;;1.67;1.43;;;;;;;;;;5061057;27;90090;-54
2023/05/10 05:27:25;;;;;;;3.13;1.50;;;;;;;;;;5064548;27;87476;-55
2023/05/10 05:29:54;;;;;;;2.73;1.17;;;;;;;;;;5064130;27;88328;-55
2023/05/10 05:32:22;;;;;;;1.80;1.43;;;;;;;;;;5064111;27;87018;-55
2023/05/10 05:34:52;;;;;;;3.17;1.80;;;;;;;;;;5063863;27;89204;-54
2023/05/10 05:37:21;;;;;;;1.90;1.30;;;;;;;;;;5064097;27;88845;-54
2023/05/10 05:39:49;;;;;;;1.77;1.07;;;;;;;;;;5064816;27;86956;-54
2023/05/10 05:42:18;;;;;;;1.47;1.20;;;;;;;;;;5063712;27;86297;-54
2023/05/10 05:44:47;;;;;;;2.07;1.20;;;;;;;;;;5064721;27;88085;-54
2023/05/10 05:47:15;;;;;;;3.37;1.47;;;;;;;;;;5063808;27;88900;-54
2023/05/10 05:49:45;;;;;;;2.93;1.23;;;;;;;;;;5063492;27;87848;-50
2023/05/10 05:52:15;;;;;;;1.60;1.17;;;;;;;;;;5063798;27;87114;-51
2023/05/10 05:54:43;;;;;;;1.47;1.00;;;;;;;;;;5063917;27;89018;-54
2023/05/10 05:57:12;;;;;;;3.73;1.03;;;;;;;;;;5062938;27;89113;-53
2023/05/10 05:59:43;;;;;;;1.37;1.23;;;;;;;;;;5063931;27;87063;-54
2023/05/10 06:02:12;;;;;;;1.83;1.20;;;;;;;;;;5044720;27;87081;-53
2023/05/10 06:04:40;;;;;;;5.07;1.37;;;;;;;;;;5063088;27;88171;-52
2023/05/10 06:07:11;;;;;;;1.13;0.90;;;;;;;;;;5063725;27;88667;-52
2023/05/10 06:09:41;;;;;;;2.97;1.30;;;;;;;;;;5063889;27;86919;-52
2023/05/10 06:12:09;;;;;;;2.27;1.40;;;;;;;;;;5064028;27;87058;-52
2023/05/10 06:14:38;;;;;;;3.20;1.20;;;;;;;;;;5062281;27;89939;-52
2023/05/10 06:17:06;;;;;;;1.20;1.10;;;;;;;;;;5064306;27;89970;-52
2023/05/10 06:19:35;;;;;;;2.10;1.53;;;;;;;;;;5063689;27;87155;-52
2023/05/10 06:22:03;;;;;;;1.20;1.10;;;;;;;;;;5064120;27;86821;-52
2023/05/10 06:24:32;;;;;;;1.40;1.20;;;;;;;;;;5064084;27;89099;-52
2023/05/10 06:27:01;;;;;;;1.93;0.90;;;;;;;;;;5063947;27;87047;-52
2023/05/10 06:29:30;;;;;;;2.10;1.10;;;;;;;;;;5063968;27;87072;-52
2023/05/10 06:31:59;;;;;;;3.13;1.07;;;;;;;;;;5064566;27;86255;-52
2023/05/10 06:34:27;;;;;;;1.77;1.20;;;;;;;;;;5063453;27;89148;-52
2023/05/10 06:36:55;;;;;;;3.83;1.40;;;;;;;;;;5064040;27;88871;-52
2023/05/10 06:39:24;;;;;;;2.33;1.10;;;;;;;;;;5063234;27;87769;-52
2023/05/10 06:41:52;;;;;;;1.40;0.93;;;;;;;;;;5063932;27;86908;-52
2023/05/10 06:44:22;;;;;;;2.10;1.30;;;;;;;;;;5063494;27;87848;-52
2023/05/10 06:46:50;;;;;;;1.90;1.00;;;;;;;;;;5063442;27;87836;-52
2023/05/10 06:49:19;;;;;;;1.10;1.00;;;;;;;;;;5063722;27;86825;-52
2023/05/10 06:51:48;;;;;;;2.03;1.00;;;;;;;;;;5063493;27;87000;-52
2023/05/10 06:54:16;;;;;;;1.70;1.10;;;;;;;;;;5063317;27;88099;-52
2023/05/10 06:56:44;;;;;;;1.57;0.97;;;;;;;;;;5063299;27;88928;-51
2023/05/10 06:59:13;;;;;;;0.70;0.70;;;;;;;;;;5062806;27;86915;-52
2023/05/10 07:01:43;;;;;;;0.83;0.77;;;;;;;;;;5062826;27;86978;-51
2023/05/10 07:04:11;;;;;;;0.93;0.90;;;;;;;;;;5062616;27;90101;-52
2023/05/10 07:06:39;;;;;;;1.30;0.60;;;;;;;;;;5063356;27;89695;-52
2023/05/10 07:09:08;;;;;;;0.70;0.70;;;;;;;;;;5063676;27;87159;-52
2023/05/10 07:11:37;;;;;;;0.40;0.40;;;;;;;;;;5063488;27;87008;-52
2023/05/10 07:14:05;;;;;;;1.00;0.90;;;;;;;;;;5063275;27;88192;-52
2023/05/10 07:16:34;;;;;;;2.20;1.00;;;;;;;;;;5044456;27;88049;-52
2023/05/10 07:19:05;;;;;;;1.80;0.90;;;;;;;;;;5043105;27;87027;-52
2023/05/10 07:21:34;;;;;;;1.00;0.60;;;;;;;;;;5042701;27;86169;-52
2023/05/10 07:24:03;;;;;;;1.17;0.97;;;;;;;;;;5042427;27;88883;-51
2023/05/10 07:26:31;;;;;;;0.70;0.67;;;;;;;;;;5042087;27;87499;-51
2023/05/10 07:29:00;;;;;;;1.13;0.93;;;;;;;;;;5042414;28;87698;-52
2023/05/10 07:31:28;;;;;;;1.53;0.77;;;;;;;;;;5042223;28;87006;-52
2023/05/10 07:33:56;;;;;;;0.67;0.67;;;;;;;;;;5043124;27;89111;-52
2023/05/10 07:36:26;;;;;;;3.03;0.73;;;;;;;;;;5042767;28;87787;-51
2023/05/10 07:38:54;;;;;;;4.80;0.60;;;;;;;;;;5042620;27;86966;-51
2023/05/10 07:41:23;;;;;;;0.73;0.73;;;;;;;;;;5042601;28;87199;-52
2023/05/10 07:43:51;;;;;;;3.17;1.10;;;;;;;;;;5042592;28;89104;-52
2023/05/10 07:46:20;;;;;;;0.93;0.80;;;;;;;;;;5042403;28;88865;-52
2023/05/10 07:48:48;;;;;;;1.00;0.90;;;;;;;;;;5041928;27;87038;-52
2023/05/10 07:51:16;;;;;;;1.03;0.90;;;;;;;;;;5042607;27;86717;-52
2023/05/10 07:53:46;;;;;;;0.70;0.70;;;;;;;;;;5041523;27;89947;-52
2023/05/10 07:56:21;;;;;;;1.07;1.03;;;;;;;;;;5042526;28;89847;-51
2023/05/10 07:58:49;;;;;;;1.60;0.60;;;;;;;;;;5042557;27;86976;-52
2023/05/10 08:01:18;;;;;;;0.70;0.70;;;;;;;;;;5042452;27;86757;-52
2023/05/10 08:03:46;;;;;;;2.00;0.83;;;;;;;;;;5041866;27;88000;-52
2023/05/10 08:06:15;;;;;;;1.97;0.80;;;;;;;;;;5042413;27;89002;-52
2023/05/10 08:08:45;;;;;;;1.20;0.70;;;;;;;;;;5042424;27;86912;-52
2023/05/10 08:11:15;;;;;;;1.87;1.23;;;;;;;;;;5042892;27;86225;-52
2023/05/10 08:13:43;;;;;;;0.60;0.60;;;;;;;;;;5042208;27;89149;-52
2023/05/10 08:16:11;;;;;;;0.80;0.77;;;;;;;;;;5057587;27;88546;-52
2023/05/10 08:18:40;;;;;;;2.17;0.97;;;;;;;;;;5061895;27;87951;-52
2023/05/10 08:21:08;;;;;;;1.20;0.50;;;;;;;;;;5062152;27;87048;-52
2023/05/10 08:23:37;;;;;;;1.00;0.70;;;;;;;;;;5062003;27;89065;-52
2023/05/10 08:26:05;;;;;;;1.20;0.80;;;;;;;;;;5062091;27;89028;-52
2023/05/10 08:28:35;;;;;;;0.80;0.80;;;;;;;;;;5055808;27;87030;-52
2023/05/10 08:31:03;;;;;;;0.83;0.83;;;;;;;;;;5061610;27;86909;-52
2023/05/10 08:33:31;;;;;;;0.83;0.83;;;;;;;;;;5062204;27;88161;-52
2023/05/10 08:35:59;;;;;;;0.60;0.60;;;;;;;;;;5062340;27;87657;-52
2023/05/10 08:38:28;;;;;;;1.20;0.60;;;;;;;;;;5063629;27;87076;-52
2023/05/10 08:40:58;;;;;;;0.70;0.70;;;;;;;;;;5064866;27;86912;-52
2023/05/10 08:43:28;;;;;;;1.13;0.93;;;;;;;;;;5064719;27;90122;-52
2023/05/10 08:45:57;;;;;;;1.40;1.07;;;;;;;;;;5064828;27;90000;-52
2023/05/10 08:48:26;;;;;;;0.60;0.60;;;;;;;;;;5065043;27;87102;-52
2023/05/10 08:50:55;;;;;;;0.50;0.50;;;;;;;;;;5066025;27;87074;-52
2023/05/10 08:53:23;;;;;;;0.60;0.60;;;;;;;;;;5065578;27;88974;-52
2023/05/10 08:55:52;;;;;;;0.93;0.60;;;;;;;;;;5065641;27;88939;-52
2023/05/10 08:58:20;;;;;;;0.80;0.70;;;;;;;;;;5065372;27;87163;-52
2023/05/10 09:00:50;;;;;;;0.67;0.50;;;;;;;;;;5065374;27;86318;-52
2023/05/10 09:03:20;;;;;;;0.90;0.90;;;;;;;;;;5061448;27;87902;-52
2023/05/10 09:05:48;;;;;;;0.83;0.67;;;;;;;;;;5064912;27;88933;-52
2023/05/10 09:08:17;;;;;;;0.40;0.40;;;;;;;;;;5064925;27;87866;-52
2023/05/10 09:10:47;;;;;;;0.50;0.50;;;;;;;;;;5065359;27;87108;-52
2023/05/10 09:13:15;;;;;;;0.63;0.63;;;;;;;;;;5065225;27;89173;-52
2023/05/10 09:15:44;;;;;;;1.83;0.80;;;;;;;;;;5065079;27;88831;-52
2023/05/10 09:18:13;;;;;;;0.80;0.80;;;;;;;;;;5065294;27;87441;-52
2023/05/10 09:20:43;;;;;;;0.53;0.53;;;;;;;;;;5065101;27;86824;-52
2023/05/10 09:23:11;;;;;;;0.60;0.60;;;;;;;;;;5064507;27;88142;-52
2023/05/10 09:25:40;;;;;;;0.87;0.80;;;;;;;;;;5065804;27;86570;-52
2023/05/10 09:28:09;;;;;;;1.93;0.70;;;;;;;;;;5065425;27;87026;-52
2023/05/10 09:30:38;;;;;;;0.70;0.60;;;;;;;;;;5061257;27;87106;-52
2023/05/10 09:33:06;;;;;;;0.50;0.40;;;;;;;;;;5063516;27;89131;-51
2023/05/10 09:35:35;;;;;;;0.60;0.60;;;;;;;;;;5064277;27;89935;-52
2023/05/10 09:38:06;;;;;;;0.83;0.83;;;;;;;;;;5064203;27;87047;-52
2023/05/10 09:40:34;;;;;;;1.20;1.10;;;;;;;;;;5064408;27;87037;-52
2023/05/10 09:43:03;;;;;;;0.77;0.77;;;;;;;;;;5064744;27;89151;-51
2023/05/10 09:45:31;;;;;;;2.23;0.70;;;;;;;;;;5064831;27;88888;-52
2023/05/10 09:48:02;;;;;;;0.80;0.80;;;;;;;;;;5064384;27;86905;-52
2023/05/10 09:50:30;;;;;;;0.80;0.80;;;;;;;;;;5064219;27;86241;-52
2023/05/10 09:52:59;;;;;;;0.70;0.60;;;;;;;;;;5064756;27;88158;-52
2023/05/10 09:55:40;;;;;;;1.13;1.03;;;;;;;;;;5064151;27;87625;-52
2023/05/10 09:58:10;;;;;;;0.60;0.60;;;;;;;;;;5064131;27;87935;-51
2023/05/10 10:00:39;;;;;;;1.40;0.97;;;;;;;;;;5062817;27;87047;-51
2023/05/10 10:03:07;;;;;;;0.90;0.80;;;;;;;;;;5063273;27;89090;-51
2023/05/10 10:05:36;;;;;;;2.27;1.20;;;;;;;;;;5063974;27;87800;-52
2023/05/10 10:08:07;;;;;;;0.90;0.80;;;;;;;;;;5064084;27;87152;-52
2023/05/10 10:10:38;;;;;;;1.00;0.90;;;;;;;;;;5064027;27;86899;-52
2023/05/10 10:13:06;;;;;;;1.80;1.07;;;;;;;;;;5063963;27;89501;-52
2023/05/10 10:15:35;;;;;;;1.47;1.10;;;;;;;;;;5064091;27;87905;-52
2023/05/10 10:18:04;;;;;;;1.47;1.10;;;;;;;;;;5064358;27;86784;-52
2023/05/10 10:20:33;;;;;;;0.73;0.73;;;;;;;;;;5064423;27;86968;-52
2023/05/10 10:23:01;;;;;;;0.83;0.60;;;;;;;;;;5062735;27;89780;-52
2023/05/10 10:25:29;;;;;;;1.00;0.93;;;;;;;;;;5061308;27;88693;-52
2023/05/10 10:28:03;;;;;;;1.47;1.10;;;;;;;;;;5063928;27;87070;-52
2023/05/10 10:30:31;;;;;;;1.20;1.00;;;;;;;;;;5063915;27;87080;-52
2023/05/10 10:33:08;;;;;;;1.37;1.20;;;;;;;;;;5064235;27;88120;-52
2023/05/10 10:35:54;;;;;;;0.80;0.80;;;;;;;;;;5062216;27;88831;-52
2023/05/10 10:38:22;;;;;;;1.53;1.00;;;;;;;;;;5064461;27;87133;-52
2023/05/10 10:40:57;;;;;;;0.70;0.70;;;;;;;;;;5063675;27;86293;-52
2023/05/10 10:43:27;;;;;;;5.30;0.97;;;;;;;;;;5063486;27;89340;-52
2023/05/10 10:46:11;;;;;;;6.27;1.00;;;;;;;;;;5063618;27;87632;-52
2023/05/10 10:48:39;;;;;;;0.70;0.70;;;;;;;;;;5063317;27;87916;-52
2023/05/10 10:51:07;;;;;;;0.87;0.83;;;;;;;;;;5063983;27;87011;-52
2023/05/10 10:53:40;;;;;;;1.00;0.90;;;;;;;;;;5063272;27;88075;-52
2023/05/10 10:56:09;;;;;;;4.40;1.40;;;;;;;;;;5062839;27;87786;-52
2023/05/10 10:58:39;;;;;;;0.80;0.80;;;;;;;;;;5063545;27;87044;-52
2023/05/10 11:01:11;;;;;;;2.30;1.30;;;;;;;;;;5061869;27;87112;-52
2023/05/10 11:03:39;;;;;;;3.03;1.10;;;;;;;;;;5063328;27;89293;-52
2023/05/10 11:06:08;;;;;;;2.10;1.90;;;;;;;;;;5064041;27;88859;-52
2023/05/10 11:08:43;;;;;;;0.80;0.67;;;;;;;;;;5063562;27;87137;-52
2023/05/10 11:11:11;;;;;;;0.77;0.77;;;;;;;;;;5063227;27;87059;-52
2023/05/10 11:13:41;;;;;;;0.80;0.80;;;;;;;;;;5062400;27;89127;-52
2023/05/10 11:16:19;;;;;;;0.77;0.70;;;;;;;;;;5063287;27;88755;-52
2023/05/10 11:19:01;;;;;;;2.00;0.90;;;;;;;;;;5063427;27;86749;-52
2023/05/10 11:21:30;;;;;;;1.20;0.87;;;;;;;;;;5063096;27;87008;-52
2023/05/10 11:23:59;;;;;;;0.70;0.70;;;;;;;;;;5063153;27;88136;-52
2023/05/10 11:26:27;;;;;;;1.13;0.90;;;;;;;;;;5062679;27;88912;-52
2023/05/10 11:28:58;;;;;;;1.00;0.90;;;;;;;;;;5063093;27;87019;-52
2023/05/10 11:31:27;;;;;;;2.03;0.97;;;;;;;;;;5063556;27;86256;-52
2023/05/10 11:33:56;;;;;;;2.73;0.80;;;;;;;;;;5063044;27;89406;-52
2023/05/10 11:36:26;;;;;;;0.80;0.80;;;;;;;;;;5062702;27;88918;-52
2023/05/10 11:38:54;;;;;;;0.83;0.60;;;;;;;;;;5062563;27;87889;-52
2023/05/10 11:41:23;;;;;;;0.47;0.47;;;;;;;;;;5062959;27;87053;-52
2023/05/10 11:43:51;;;;;;;2.13;1.23;;;;;;;;;;5063013;27;89095;-52
2023/05/10 11:46:22;;;;;;;1.27;0.97;;;;;;;;;;5062904;27;88871;-52
2023/05/10 11:48:51;;;;;;;1.17;0.80;;;;;;;;;;5062133;27;87007;-52
2023/05/10 11:51:21;;;;;;;1.17;0.90;;;;;;;;;;5062641;27;87034;-52
2023/05/10 11:53:50;;;;;;;0.63;0.53;;;;;;;;;;5062252;27;89277;-52
2023/05/10 11:56:18;;;;;;;0.80;0.80;;;;;;;;;;5063059;27;86705;-52
2023/05/10 11:58:47;;;;;;;2.80;0.73;;;;;;;;;;5063037;27;87047;-52
2023/05/10 12:01:15;;;;;;;0.60;0.60;;;;;;;;;;5062133;27;88045;-52
2023/05/10 12:03:45;;;;;;;0.57;0.57;;;;;;;;;;5062446;27;90103;-52
2023/05/10 12:06:13;;;;;;;2.20;0.60;;;;;;;;;;5062287;27;89864;-52
2023/05/10 12:08:45;;;;;;;0.60;0.60;;;;;;;;;;5062385;27;87116;-53
2023/05/10 12:11:15;;;;;;;0.50;0.50;;;;;;;;;;5062994;27;87025;-52
2023/05/10 12:13:46;;;;;;;4.53;0.80;;;;;;;;;;5061825;27;88290;-52
2023/05/10 12:16:15;;;;;;;1.53;0.77;;;;;;;;;;5062471;27;88661;-52
2023/05/10 12:18:44;;;;;;;0.67;0.67;;;;;;;;;;5061969;27;87087;-52
2023/05/10 12:21:13;;;;;;;0.80;0.80;;;;;;;;;;5062347;27;86241;-52
2023/05/10 12:23:41;;;;;;;0.60;0.60;;;;;;;;;;5062103;27;89239;-52
2023/05/10 12:26:10;;;;;;;1.07;0.73;;;;;;;;;;5062364;27;88577;-52
2023/05/10 12:28:39;;;;;;;0.80;0.70;;;;;;;;;;5061944;27;87997;-52
2023/05/10 12:31:07;;;;;;;2.57;1.20;;;;;;;;;;5062319;27;87030;-52
2023/05/10 12:33:41;;;;;;;1.30;1.20;;;;;;;;;;5062347;27;88390;-52
2023/05/10 12:36:11;;;;;;;1.33;0.80;;;;;;;;;;5062154;27;86935;-52
2023/05/10 12:38:42;;;;;;;0.73;0.73;;;;;;;;;;5062253;27;86765;-52
2023/05/10 12:41:10;;;;;;;0.80;0.80;;;;;;;;;;5061961;27;87054;-52
2023/05/10 12:43:39;;;;;;;2.63;0.93;;;;;;;;;;5061910;27;89035;-52
2023/05/10 12:46:08;;;;;;;0.90;0.70;;;;;;;;;;5061865;27;88869;-52
2023/05/10 12:48:37;;;;;;;0.60;0.60;;;;;;;;;;5061707;27;86921;-52
2023/05/10 12:51:05;;;;;;;0.50;0.50;;;;;;;;;;5062285;27;86937;-52
2023/05/10 12:53:34;;;;;;;0.77;0.70;;;;;;;;;;5061414;27;90444;-52
2023/05/10 12:56:03;;;;;;;1.43;0.70;;;;;;;;;;5062122;27;88815;-52
2023/05/10 12:58:31;;;;;;;0.73;0.73;;;;;;;;;;5062034;27;87065;-52
2023/05/10 13:01:04;;;;;;;0.90;0.90;;;;;;;;;;5061385;27;86997;-52
2023/05/10 13:03:33;;;;;;;2.93;0.70;;;;;;;;;;5061465;27;89009;-52
2023/05/10 13:06:01;;;;;;;1.47;0.70;;;;;;;;;;5061010;27;87614;-52
2023/05/10 13:08:33;;;;;;;1.03;0.50;;;;;;;;;;5061404;27;86987;-52
2023/05/10 13:11:03;;;;;;;1.80;0.90;;;;;;;;;;5062018;27;86257;-52
2023/05/10 13:13:31;;;;;;;1.03;0.80;;;;;;;;;;5061598;27;88301;-52
2023/05/10 13:15:59;;;;;;;0.50;0.50;;;;;;;;;;5061393;27;87043;-52
2023/05/10 13:18:28;;;;;;;0.60;0.60;;;;;;;;;;5061013;27;87872;-52
2023/05/10 13:20:56;;;;;;;0.83;0.83;;;;;;;;;;5061851;27;86838;-52
2023/05/10 13:23:24;;;;;;;2.57;0.80;;;;;;;;;;5061510;27;88923;-52
2023/05/10 13:25:53;;;;;;;0.80;0.50;;;;;;;;;;5064225;27;88854;-52
2023/05/10 13:28:22;;;;;;;1.87;0.93;;;;;;;;;;5065498;27;86878;-52
2023/05/10 13:30:51;;;;;;;1.67;0.80;;;;;;;;;;5064723;27;87002;-52
2023/05/10 13:33:19;;;;;;;1.10;1.00;;;;;;;;;;5065015;27;89214;-52
2023/05/10 13:35:47;;;;;;;1.67;0.90;;;;;;;;;;5065503;27;87971;-52
2023/05/10 13:38:16;;;;;;;0.80;0.80;;;;;;;;;;5065435;27;86743;-52
2023/05/10 13:40:44;;;;;;;1.63;1.03;;;;;;;;;;5064638;27;87033;-52
2023/05/10 13:43:12;;;;;;;1.33;0.70;;;;;;;;;;5063660;27;90135;-52
2023/05/10 13:45:42;;;;;;;1.63;0.93;;;;;;;;;;5064429;27;88860;-52
2023/05/10 13:48:10;;;;;;;1.93;0.83;;;;;;;;;;5064391;27;87687;-52
2023/05/10 13:50:39;;;;;;;0.80;0.70;;;;;;;;;;5064523;27;87012;-52
2023/05/10 13:53:07;;;;;;;0.93;0.90;;;;;;;;;;5064156;27;89166;-52
2023/05/10 13:55:35;;;;;;;1.70;0.63;;;;;;;;;;5064543;27;88790;-52
2023/05/10 13:58:03;;;;;;;0.70;0.70;;;;;;;;;;5064907;27;86987;-52
2023/05/10 14:00:32;;;;;;;1.23;0.83;;;;;;;;;;5064604;27;86621;-52
2023/05/10 14:03:02;;;;;;;1.70;1.03;;;;;;;;;;5064570;27;88120;-51
2023/05/10 14:05:30;;;;;;;1.70;0.93;;;;;;;;;;5064478;27;88853;-51
2023/05/10 14:07:58;;;;;;;1.07;0.97;;;;;;;;;;5064304;27;88022;-52
2023/05/10 14:10:27;;;;;;;0.57;0.57;;;;;;;;;;5064309;27;86934;-51
2023/05/10 14:12:55;;;;;;;0.87;0.50;;;;;;;;;;5064116;27;88260;-52
2023/05/10 14:15:23;;;;;;;1.07;0.67;;;;;;;;;;5064356;27;88630;-52
2023/05/10 14:17:52;;;;;;;1.20;0.70;;;;;;;;;;5064675;27;87082;-52
2023/05/10 14:20:21;;;;;;;0.73;0.73;;;;;;;;;;5064301;27;87029;-52
2023/05/10 14:22:50;;;;;;;0.90;0.60;;;;;;;;;;5063814;27;89171;-51
2023/05/10 14:25:18;;;;;;;1.30;0.90;;;;;;;;;;5064454;27;88912;-51
2023/05/10 14:27:47;;;;;;;0.83;0.83;;;;;;;;;;5064094;27;86709;-52
2023/05/10 14:30:16;;;;;;;0.70;0.70;;;;;;;;;;5064239;27;87104;-52
2023/05/10 14:32:44;;;;;;;0.60;0.60;;;;;;;;;;5063164;27;89965;-51
2023/05/10 14:35:13;;;;;;;1.23;0.97;;;;;;;;;;5063677;27;89782;-51
2023/05/10 14:37:47;;;;;;;1.47;0.80;;;;;;;;;;5064462;27;87046;-52
2023/05/10 14:40:16;;;;;;;0.67;0.67;;;;;;;;;;5063787;27;86884;-51
2023/05/10 14:42:45;;;;;;;1.43;0.77;;;;;;;;;;5063335;27;87871;-52
2023/05/10 14:45:13;;;;;;;2.00;0.93;;;;;;;;;;5062909;27;89820;-52
2023/05/10 14:47:42;;;;;;;1.00;0.80;;;;;;;;;;5063956;27;86872;-51
2023/05/10 14:50:10;;;;;;;2.37;0.93;;;;;;;;;;5063997;27;86334;-52
2023/05/10 14:52:53;;;;;;;0.77;0.60;;;;;;;;;;5063988;27;89015;-52
2023/05/10 14:55:21;;;;;;;0.60;0.60;;;;;;;;;;5063863;27;88794;-52